Time;durP1;ratioP1;P1;durP2;ratioP2;P2;SDS_P1;SDS_P2;PMS_P1;PMS_P2;Temp;Humidity;BMP_temperature;BMP_pressure;BME280_temperature;BME280_humidity;BME280_pressure;Samples;Min_cycle;Max_cycle;Signal;HPM_P1;HPM_P2
2022/09/06 00:02:19;;;;;;;5.93;3.78;;;;;;;14.56;100.00;95656.22;5103523;27;20073;-67
2022/09/06 00:04:47;;;;;;;6.07;3.28;;;;;;;14.54;100.00;95659.06;5083003;28;20136;-67
2022/09/06 00:07:14;;;;;;;5.25;3.00;;;;;;;14.56;100.00;95662.25;5101220;28;20102;-67
2022/09/06 00:09:41;;;;;;;5.38;3.30;;;;;;;14.53;100.00;95657.47;5102978;28;20039;-65
2022/09/06 00:12:08;;;;;;;5.05;3.72;;;;;;;14.59;100.00;95656.59;5084239;28;20108;-65
2022/09/06 00:14:34;;;;;;;4.40;3.53;;;;;;;14.46;100.00;95646.38;5106603;28;20569;-66
2022/09/06 00:17:01;;;;;;;4.22;2.92;;;;;;;14.53;100.00;95657.47;5105229;28;20515;-65
2022/09/06 00:19:28;;;;;;;4.13;3.20;;;;;;;14.55;100.00;95660.69;5106818;28;20035;-66
2022/09/06 00:21:55;;;;;;;3.97;2.70;;;;;;;14.55;100.00;95655.44;5107061;28;20051;-66
2022/09/06 00:24:22;;;;;;;6.75;3.20;;;;;;;14.49;100.00;95661.59;5102406;28;20138;-67
2022/09/06 00:26:48;;;;;;;4.50;3.08;;;;;;;14.49;100.00;95653.75;5105617;28;20066;-67
2022/09/06 00:29:15;;;;;;;3.90;2.80;;;;;;;14.44;100.00;95653.66;5107926;28;20039;-67
2022/09/06 00:31:42;;;;;;;4.05;3.20;;;;;;;14.46;100.00;95656.84;5120472;27;20136;-66
2022/09/06 00:34:09;;;;;;;6.60;3.08;;;;;;;14.45;100.00;95660.50;5104760;28;20054;-67
2022/09/06 00:36:36;;;;;;;6.47;2.95;;;;;;;14.41;100.00;95656.75;5106340;27;20066;-67
2022/09/06 00:39:03;;;;;;;5.50;3.38;;;;;;;14.38;100.00;95654.59;5108532;27;20075;-67
2022/09/06 00:41:30;;;;;;;5.65;3.05;;;;;;;14.42;100.00;95655.72;5087099;28;20101;-67
2022/09/06 00:43:57;;;;;;;6.63;3.45;;;;;;;14.34;100.00;95649.81;5086849;28;20448;-66
2022/09/06 00:46:28;;;;;;;4.82;3.55;;;;;;;14.37;100.00;95647.75;5107767;27;20105;-68
2022/09/06 00:49:03;;;;;;;6.75;2.85;;;;;;;14.36;100.00;95646.97;5085892;28;20039;-66
2022/09/06 00:51:33;;;;;;;4.43;3.50;;;;;;;14.30;100.00;95653.94;5089225;28;20051;-67
2022/09/06 00:54:05;;;;;;;7.28;3.42;;;;;;;14.31;100.00;95645.06;5088465;27;20044;-68
2022/09/06 00:56:36;;;;;;;5.32;3.80;;;;;;;14.09;100.00;95616.06;5107250;27;20489;-67
2022/09/06 00:59:03;;;;;;;3.78;3.08;;;;;;;14.24;100.00;95644.41;5087205;28;20520;-66
2022/09/06 01:01:30;;;;;;;5.57;3.17;;;;;;;14.22;100.00;95646.44;5106766;27;20423;-67
2022/09/06 01:03:58;;;;;;;5.22;3.25;;;;;;;14.20;100.00;95651.13;5103868;28;20054;-67
2022/09/06 01:06:48;;;;;;;6.03;3.47;;;;;;;14.17;100.00;95649.00;5103744;28;20516;-67
2022/09/06 01:09:43;;;;;;;3.67;3.00;;;;;;;14.14;100.00;95654.69;5086339;28;20373;-67
2022/09/06 01:12:26;;;;;;;4.75;3.40;;;;;;;14.10;100.00;95653.56;5081218;28;20142;-67
2022/09/06 01:15:34;;;;;;;5.63;3.40;;;;;;;14.09;100.00;95654.56;5116104;27;20040;-67
2022/09/06 01:18:15;;;;;;;5.78;3.53;;;;;;;14.05;100.00;95654.25;5102642;28;20063;-67
2022/09/06 01:21:06;;;;;;;6.60;3.20;;;;;;;13.95;100.00;95654.84;5084787;28;20531;-67
2022/09/06 01:24:21;;;;;;;3.80;3.05;;;;;;;13.91;100.00;95651.09;5103163;27;20316;-68
2022/09/06 01:27:06;;;;;;;4.72;3.70;;;;;;;13.86;100.00;95652.81;5059246;27;20048;-67
2022/09/06 01:30:00;;;;;;;10.90;3.78;;;;;;;13.76;100.00;95654.19;5107182;27;20039;-67
2022/09/06 01:32:27;;;;;;;6.65;3.55;;;;;;;13.77;100.00;95655.00;5105537;27;20067;-67
2022/09/06 01:35:08;;;;;;;4.32;3.58;;;;;;;13.76;100.00;95643.72;5104507;27;20118;-67
2022/09/06 01:37:36;;;;;;;11.95;4.07;;;;;;;13.68;100.00;95636.22;5102585;27;20432;-67
2022/09/06 01:40:03;;;;;;;7.28;3.78;;;;;;;13.69;100.00;95652.75;5085399;28;20413;-67
2022/09/06 01:42:33;;;;;;;5.75;4.13;;;;;;;13.65;100.00;95646.34;5104402;27;20058;-67
2022/09/06 01:45:08;;;;;;;8.43;4.25;;;;;;;13.68;100.00;95640.66;5084850;28;20051;-66
2022/09/06 01:48:19;;;;;;;5.13;4.30;;;;;;;13.65;100.00;95636.69;5103549;28;20447;-67
2022/09/06 01:50:57;;;;;;;5.13;3.72;;;;;;;13.62;100.00;95636.34;5037255;28;20540;-66
2022/09/06 01:53:54;;;;;;;5.45;4.03;;;;;;;13.54;100.00;95625.22;5102854;28;20466;-67
2022/09/06 01:56:48;;;;;;;5.43;4.22;;;;;;;13.50;100.00;95624.06;5103152;27;20444;-67
2022/09/06 01:59:27;;;;;;;9.15;3.85;;;;;;;13.52;100.00;95626.44;5101331;28;20042;-67
2022/09/06 02:02:02;;;;;;;6.65;3.92;;;;;;;13.48;100.00;95625.31;5106201;27;20055;-68
2022/09/06 02:04:52;;;;;;;8.70;5.00;;;;;;;13.42;100.00;95621.81;5101769;28;20451;-68
2022/09/06 02:07:21;;;;;;;9.18;5.20;;;;;;;13.38;100.00;95620.69;5101157;28;20556;-67
2022/09/06 02:09:55;;;;;;;6.70;4.53;;;;;;;13.30;100.00;95610.53;5102999;27;20565;-67
2022/09/06 02:12:22;;;;;;;;;;;;;;;13.31;100.00;95614.78;5101944;27;20062;-67
2022/09/06 02:14:55;;;;;;;7.53;4.78;;;;;;;13.29;100.00;95616.75;5084995;28;19926;-67
2022/09/06 02:17:27;;;;;;;9.88;4.22;;;;;;;13.27;100.00;95614.41;5102833;28;20050;-67
2022/09/06 02:19:57;;;;;;;7.78;4.22;;;;;;;13.24;100.00;95614.06;5105275;27;20043;-67
2022/09/06 02:22:28;;;;;;;4.85;3.55;;;;;;;13.24;100.00;95619.28;5102729;28;20043;-67
2022/09/06 02:24:58;;;;;;;4.38;3.80;;;;;;;13.11;100.00;95605.41;5103135;28;20051;-67
2022/09/06 02:27:25;;;;;;;4.55;3.78;;;;;;;13.14;100.00;95615.44;5103524;27;20058;-68
2022/09/06 02:29:52;;;;;;;7.07;3.90;;;;;;;13.13;100.00;95613.81;5084120;28;20444;-67
2022/09/06 02:32:25;;;;;;;5.47;3.90;;;;;;;13.07;100.00;95614.75;5102560;28;20035;-67
2022/09/06 02:34:55;;;;;;;6.65;3.92;;;;;;;13.08;100.00;95616.31;5104953;27;20046;-67
2022/09/06 02:37:25;;;;;;;4.85;3.92;;;;;;;13.01;100.00;95620.88;5102867;28;20437;-67
2022/09/06 02:39:54;;;;;;;5.78;4.22;;;;;;;12.90;100.00;95603.34;5082236;28;20044;-67
2022/09/06 02:42:22;;;;;;;4.30;3.88;;;;;;;13.02;100.00;95617.25;5102811;27;20055;-67
2022/09/06 02:44:49;;;;;;;5.57;3.85;;;;;;;12.98;100.00;95616.09;5101982;27;20622;-67
2022/09/06 02:47:16;;;;;;;5.85;4.10;;;;;;;13.01;100.00;95620.88;5083911;28;20040;-67
2022/09/06 02:49:43;;;;;;;5.55;4.10;;;;;;;12.91;100.00;95620.63;5102070;28;20048;-67
2022/09/06 02:52:10;;;;;;;8.05;4.57;;;;;;;12.86;100.00;95615.31;5085806;28;20355;-67
2022/09/06 02:54:37;;;;;;;5.68;3.55;;;;;;;12.91;100.00;95626.66;5102270;28;20055;-67
2022/09/06 02:57:04;;;;;;;14.15;4.38;;;;;;;12.90;100.00;95626.88;5083525;28;20124;-68
2022/09/06 02:59:31;;;;;;;4.82;4.20;;;;;;;12.89;100.00;95622.66;5102212;28;20051;-67
2022/09/06 03:01:58;;;;;;;7.35;4.43;;;;;;;12.80;100.00;95620.41;5102825;27;20031;-68
2022/09/06 03:04:25;;;;;;;7.30;4.18;;;;;;;12.86;100.00;95623.13;5101677;28;20055;-67
2022/09/06 03:06:52;;;;;;;5.60;4.25;;;;;;;12.81;100.00;95632.44;5083102;28;20115;-67
2022/09/06 03:09:19;;;;;;;10.55;4.40;;;;;;;12.80;100.00;95625.63;5102543;27;20126;-68
2022/09/06 03:11:46;;;;;;;5.53;4.22;;;;;;;12.79;100.00;95624.03;5099131;28;20042;-67
2022/09/06 03:14:15;;;;;;;7.15;4.80;;;;;;;12.78;100.00;95617.22;5103901;27;20070;-67
2022/09/06 03:16:42;;;;;;;9.95;4.00;;;;;;;12.77;100.00;95620.84;5098082;28;20057;-67
2022/09/06 03:19:09;;;;;;;7.13;5.13;;;;;;;12.74;100.00;95629.13;5101442;28;20130;-67
2022/09/06 03:21:36;;;;;;;6.80;4.85;;;;;;;12.50;100.00;95593.53;5101713;28;20040;-67
2022/09/06 03:24:03;;;;;;;10.45;4.78;;;;;;;12.68;100.00;95624.81;5104211;27;20599;-68
2022/09/06 03:26:30;;;;;;;7.55;5.10;;;;;;;12.62;100.00;95623.06;5102620;27;20144;-67
2022/09/06 03:28:57;;;;;;;6.50;5.88;;;;;;;12.57;100.00;95630.81;5105088;27;20036;-67
2022/09/06 03:31:24;;;;;;;6.97;6.00;;;;;;;12.57;100.00;95625.59;5104207;27;20635;-67
2022/09/06 03:33:50;;;;;;;8.45;6.18;;;;;;;12.58;100.00;95616.72;5101687;28;20063;-67
2022/09/06 03:36:17;;;;;;;13.63;6.35;;;;;;;12.58;100.00;95627.16;5101363;28;20556;-66
2022/09/06 03:38:44;;;;;;;13.75;5.93;;;;;;;12.52;100.00;95622.84;5101550;28;20437;-67
2022/09/06 03:41:11;;;;;;;11.05;6.18;;;;;;;12.55;100.00;95630.22;5102069;28;20419;-67
2022/09/06 03:43:38;;;;;;;9.98;6.50;;;;;;;12.54;100.00;95626.03;5100091;27;20075;-67
2022/09/06 03:46:05;;;;;;;9.13;6.18;;;;;;;12.54;100.00;95620.78;5101797;27;20508;-67
2022/09/06 03:48:32;;;;;;;9.35;6.03;;;;;;;12.56;100.00;95629.19;5101585;28;20043;-67
2022/09/06 03:50:59;;;;;;;8.48;6.10;;;;;;;12.54;100.00;95628.63;5104386;27;20486;-66
2022/09/06 03:53:27;;;;;;;7.32;6.05;;;;;;;12.56;100.00;95626.59;5083170;28;20044;-66
2022/09/06 03:55:56;;;;;;;7.55;5.18;;;;;;;12.52;100.00;95633.28;5101956;28;20764;-67
2022/09/06 03:58:27;;;;;;;7.75;4.95;;;;;;;12.53;100.00;95635.69;5100072;28;20299;-67
2022/09/06 04:01:06;;;;;;;8.55;5.63;;;;;;;12.54;100.00;95628.63;5085038;28;20473;-66
2022/09/06 04:03:34;;;;;;;6.55;5.10;;;;;;;12.50;100.00;95635.34;5100751;28;20043;-66
2022/09/06 04:06:01;;;;;;;8.40;5.05;;;;;;;12.50;100.00;95630.09;5099568;28;20071;-65
2022/09/06 04:08:28;;;;;;;6.55;5.80;;;;;;;12.51;100.00;95637.69;5100551;28;20039;-67
2022/09/06 04:10:56;;;;;;;10.82;5.80;;;;;;;12.56;100.00;95637.03;5103937;27;20061;-67
2022/09/06 04:13:24;;;;;;;8.30;5.82;;;;;;;12.58;100.00;95638.41;5097064;28;20486;-67
2022/09/06 04:15:51;;;;;;;9.57;6.13;;;;;;;12.61;100.00;95637.19;5100875;28;20047;-67
2022/09/06 04:18:19;;;;;;;8.25;5.88;;;;;;;12.54;100.00;95618.19;5084670;28;20043;-67
2022/09/06 04:20:54;;;;;;;8.63;6.97;;;;;;;12.70;100.00;95641.06;5100879;28;20536;-66
2022/09/06 04:23:22;;;;;;;10.60;6.47;;;;;;;12.76;100.00;95640.16;5098661;28;20067;-67
2022/09/06 04:25:52;;;;;;;7.75;5.95;;;;;;;12.76;100.00;95640.16;5097946;28;20859;-67
2022/09/06 04:28:20;;;;;;;9.68;5.75;;;;;;;12.79;100.00;95639.72;5098231;28;20054;-67
2022/09/06 04:30:52;;;;;;;10.27;5.55;;;;;;;12.87;100.00;95635.97;5098413;28;20048;-66
2022/09/06 04:33:20;;;;;;;13.52;6.78;;;;;;;12.90;100.00;95639.97;5101220;28;20104;-67
2022/09/06 04:35:49;;;;;;;9.10;4.72;;;;;;;12.95;100.00;95642.69;5099545;28;20062;-68
2022/09/06 04:38:15;;;;;;;7.95;4.95;;;;;;;12.94;100.00;95643.72;5096901;28;20040;-68
2022/09/06 04:40:42;;;;;;;6.68;4.72;;;;;;;12.96;100.00;95644.28;5080966;28;20047;-67
2022/09/06 04:43:09;;;;;;;9.70;4.43;;;;;;;13.04;100.00;95638.72;5100592;28;20156;-67
2022/09/06 04:45:36;;;;;;;7.93;4.70;;;;;;;13.02;100.00;95627.69;5099405;28;20054;-75
2022/09/06 04:48:03;;;;;;;8.90;5.40;;;;;;;13.09;100.00;95625.78;5099416;28;20122;-76
2022/09/06 04:50:31;;;;;;;6.60;4.90;;;;;;;13.11;100.00;95615.88;5085875;28;20575;-77
2022/09/06 04:53:04;;;;;;;9.57;5.10;;;;;;;13.30;100.00;95634.06;5080879;28;20488;-67
2022/09/06 04:55:32;;;;;;;10.50;5.80;;;;;;;13.38;100.00;95636.38;5099713;28;20044;-67
2022/09/06 04:58:00;;;;;;;7.50;5.82;;;;;;;13.51;100.00;95636.13;5098649;28;20051;-67
2022/09/06 05:00:28;;;;;;;8.52;7.10;;;;;;;13.64;100.00;95629.84;5102647;28;20063;-67
2022/09/06 05:02:55;;;;;;;9.25;6.50;;;;;;;13.66;100.00;95621.78;5100677;28;20092;-67
2022/09/06 05:05:22;;;;;;;8.68;7.07;;;;;;;13.86;100.00;95631.88;5098978;28;20043;-67
2022/09/06 05:07:52;;;;;;;10.07;6.60;;;;;;;14.00;100.00;95635.03;5099534;28;20036;-67
2022/09/06 05:10:21;;;;;;;12.35;7.10;;;;;;;14.08;100.00;95635.47;5079064;28;20039;-67
2022/09/06 05:12:53;;;;;;;7.97;6.85;;;;;;;14.06;100.00;95605.28;5079956;28;20444;-67
2022/09/06 05:15:21;;;;;;;12.35;6.82;;;;;;;14.39;100.00;95640.47;5097456;28;20039;-66
2022/09/06 05:17:48;;;;;;;10.45;6.55;;;;;;;14.47;100.00;95637.47;5098784;28;20040;-67
2022/09/06 05:20:15;;;;;;;10.80;6.07;;;;;;;14.63;100.00;95631.47;5101371;28;20548;-66
2022/09/06 05:22:42;;;;;;;7.68;6.13;;;;;;;14.75;100.00;95643.72;5104750;28;20042;-67
2022/09/06 05:25:09;;;;;;;7.30;5.65;;;;;;;14.91;100.00;95637.72;5104955;28;20044;-68
2022/09/06 05:27:36;;;;;;;8.70;5.93;;;;;;;14.93;100.00;95640.88;5105235;28;20417;-68
2022/09/06 05:30:03;;;;;;;8.35;5.28;;;;;;;14.88;100.00;95636.34;5104958;28;20055;-67
2022/09/06 05:32:30;;;;;;;6.07;5.20;;;;;;;14.89;100.00;95634.50;5086266;28;20036;-67
2022/09/06 05:34:57;;;;;;;11.10;4.90;;;;;;;14.97;100.00;95621.00;5102402;28;20043;-66
2022/09/06 05:37:24;;;;;;;11.02;6.00;;;;;;;15.08;100.00;95628.00;5104746;27;20050;-65
2022/09/06 05:39:51;;;;;;;9.25;6.00;;;;;;;15.22;100.00;95627.69;5103880;28;20039;-67
2022/09/06 05:42:17;;;;;;;8.38;5.70;;;;;;;15.40;100.00;95635.28;5084875;28;20039;-66
2022/09/06 05:44:45;;;;;;;10.50;6.97;;;;;;;15.51;100.00;95638.84;5087114;28;20039;-67
2022/09/06 05:47:12;;;;;;;8.00;7.20;;;;;;;15.69;100.00;95643.03;5106483;27;20035;-67
2022/09/06 05:49:39;;;;;;;15.80;8.10;;;;;;;15.72;100.00;95618.91;5102726;27;20043;-67
2022/09/06 05:52:06;;;;;;;12.75;7.95;;;;;;;15.91;100.00;95637.03;5105721;27;20039;-66
2022/09/06 05:54:33;;;;;;;8.60;6.68;;;;;;;16.00;100.00;95632.94;5103356;27;20050;-67
2022/09/06 05:56:59;;;;;;;9.73;7.65;;;;;;;16.07;100.00;95638.00;5121432;27;20047;-67
2022/09/06 05:59:26;;;;;;;13.13;7.97;;;;;;;16.12;100.00;95636.22;5103218;28;20066;-67
2022/09/06 06:01:53;;;;;;;10.73;8.25;;;;;;;16.18;100.00;95629.97;5106356;27;20043;-65
2022/09/06 06:04:21;;;;;;;13.30;8.27;;;;;;;16.32;100.00;95629.59;5101971;28;20050;-67
2022/09/06 06:06:48;;;;;;;20.65;7.35;;;;;;;16.46;100.00;95625.53;5101498;28;20134;-67
2022/09/06 06:09:15;;;;;;;10.02;7.75;;;;;;;16.51;100.00;95625.59;5101980;27;20058;-67
2022/09/06 06:11:42;;;;;;;9.65;7.65;;;;;;;16.62;100.00;95619.38;5103889;27;20036;-66
2022/09/06 06:14:09;;;;;;;12.50;8.63;;;;;;;16.75;100.00;95622.66;5099122;27;20046;-67
2022/09/06 06:16:37;;;;;;;14.35;7.35;;;;;;;16.83;100.00;95619.56;5110736;27;20038;-67
2022/09/06 06:19:04;;;;;;;9.75;7.20;;;;;;;16.88;100.00;95617.00;5101804;27;20040;-67
2022/09/06 06:21:32;;;;;;;11.25;8.07;;;;;;;16.96;100.00;95624.44;5105214;27;20035;-67
2022/09/06 06:24:01;;;;;;;10.10;7.88;;;;;;;17.14;100.00;95617.16;5101621;27;20048;-67
2022/09/06 06:26:30;;;;;;;12.07;6.45;;;;;;;17.23;100.00;95607.75;5083475;28;20066;-67
2022/09/06 06:29:00;;;;;;;9.98;8.50;;;;;;;17.37;100.00;95611.53;5102473;27;20058;-75
2022/09/06 06:31:29;;;;;;;9.18;7.13;;;;;;;17.50;100.00;95617.41;5066919;28;20047;-67
2022/09/06 06:33:57;;;;;;;22.45;7.35;;;;;;;17.55;100.00;95614.78;5103080;28;20471;-69
2022/09/06 06:36:25;;;;;;;11.95;6.97;;;;;;;17.68;100.00;95619.63;5083963;28;20046;-67
2022/09/06 06:38:54;;;;;;;7.55;6.40;;;;;;;17.74;100.00;95615.94;5102461;28;20040;-67
2022/09/06 06:41:26;;;;;;;8.52;6.82;;;;;;;17.87;100.00;95613.94;5102040;27;20138;-67
2022/09/06 06:43:55;;;;;;;11.60;6.07;;;;;;;18.02;100.00;95613.97;5101830;28;20058;-66
2022/09/06 06:46:25;;;;;;;6.07;5.20;;;;;;;18.04;100.00;95617.16;5102910;28;20050;-65
2022/09/06 06:48:55;;;;;;;11.70;5.88;;;;;;;18.01;100.00;95591.31;5102776;27;20049;-66
2022/09/06 06:51:24;;;;;;;7.68;5.55;;;;;;;18.19;100.00;95613.00;5101949;28;20047;-66
2022/09/06 06:53:51;;;;;;;17.88;9.48;;;;;;;18.38;100.00;95616.69;5101610;28;20043;-67
2022/09/06 06:56:22;;;;;;;6.80;4.97;;;;;;;18.52;100.00;95623.06;5101913;28;20051;-65
2022/09/06 06:58:51;;;;;;;6.60;4.97;;;;;;;18.64;100.00;95622.03;5102279;27;20043;-65
2022/09/06 07:01:19;;;;;;;7.97;5.80;;;;;;;18.77;100.00;95618.88;5098223;27;20610;-65
2022/09/06 07:03:47;;;;;;;7.05;5.18;;;;;;;18.87;100.00;95612.81;5103442;27;20123;-65
2022/09/06 07:06:15;;;;;;;6.22;5.18;;;;;;;18.97;100.00;95615.47;5101677;27;20138;-65
2022/09/06 07:08:43;;;;;;;14.40;4.97;;;;;;;18.91;100.00;95588.28;5102586;27;20043;-68
2022/09/06 07:11:12;;;;;;;5.10;4.05;;;;;;;19.18;99.23;95618.91;5100461;28;20038;-69
2022/09/06 07:13:39;;;;;;;7.93;4.57;;;;;;;19.21;98.07;95622.84;5086071;28;20057;-68
2022/09/06 07:16:21;;;;;;;4.60;3.55;;;;;;;19.19;97.09;95615.19;5102962;27;20052;-68
2022/09/06 07:18:52;;;;;;;4.88;3.70;;;;;;;19.28;97.51;95623.38;5100612;27;20579;-69
2022/09/06 07:21:25;;;;;;;5.38;4.15;;;;;;;19.33;97.36;95620.72;5102336;27;20061;-69
2022/09/06 07:24:09;;;;;;;3.75;2.97;;;;;;;19.56;96.36;95624.63;5100213;28;20580;-70
2022/09/06 07:26:37;;;;;;;4.28;3.35;;;;;;;19.70;94.66;95629.34;5100701;28;20036;-70
2022/09/06 07:29:06;;;;;;;4.15;2.72;;;;;;;19.86;93.70;95628.25;5102069;28;20430;-66
2022/09/06 07:31:36;;;;;;;3.65;3.20;;;;;;;20.03;94.41;95628.72;5103076;27;20067;-66
2022/09/06 07:34:24;;;;;;;4.07;2.80;;;;;;;20.15;92.33;95625.78;5101629;28;20039;-66
2022/09/06 07:36:55;;;;;;;6.60;3.15;;;;;;;20.28;93.04;95634.97;5106724;27;20332;-66
2022/09/06 07:39:22;;;;;;;7.32;3.05;;;;;;;20.35;90.38;95632.81;5103767;28;20047;-67
2022/09/06 07:41:49;;;;;;;4.72;3.03;;;;;;;20.47;90.04;95631.69;5103700;28;20071;-67
2022/09/06 07:44:16;;;;;;;4.32;3.47;;;;;;;20.58;90.55;95627.91;5103657;28;20039;-66
2022/09/06 07:46:42;;;;;;;4.72;3.97;;;;;;;20.81;90.35;95637.88;5103640;28;20040;-67
2022/09/06 07:49:09;;;;;;;9.82;3.75;;;;;;;20.81;88.95;95637.88;5104050;27;20054;-68
2022/09/06 07:51:36;;;;;;;5.70;4.45;;;;;;;20.90;89.01;95638.03;5104392;27;20035;-66
2022/09/06 07:54:04;;;;;;;5.32;4.13;;;;;;;20.92;89.40;95637.78;5107458;27;20076;-71
2022/09/06 07:56:51;;;;;;;7.35;4.75;;;;;;;21.16;82.10;95638.63;5101675;28;20356;-66
2022/09/06 07:59:17;;;;;;;7.63;5.43;;;;;;;21.04;83.61;95629.47;5103881;27;20166;-64
2022/09/06 08:01:46;;;;;;;6.13;3.88;;;;;;;21.11;82.61;95614.84;5102344;27;20031;-69
2022/09/06 08:04:14;;;;;;;5.10;4.28;;;;;;;21.14;81.26;95598.41;5080643;28;20056;-68
2022/09/06 08:06:47;;;;;;;5.05;4.20;;;;;;;21.42;78.79;95627.78;5084438;28;20455;-70
2022/09/06 08:09:34;;;;;;;9.32;4.10;;;;;;;21.51;76.20;95628.78;5087072;28;20036;-70
2022/09/06 08:12:05;;;;;;;5.85;3.88;;;;;;;21.62;76.65;95626.03;5100195;28;20046;-70
2022/09/06 08:14:33;;;;;;;8.00;5.38;;;;;;;21.80;78.21;95620.00;5097942;28;20544;-70
2022/09/06 08:17:01;;;;;;;8.48;3.95;;;;;;;21.85;76.24;95616.50;5103777;28;20054;-72
2022/09/06 08:19:30;;;;;;;5.65;4.75;;;;;;;22.09;75.12;95625.25;5100113;28;20039;-72
2022/09/06 08:21:57;;;;;;;7.13;3.40;;;;;;;22.32;73.01;95620.19;5099284;28;20039;-71
2022/09/06 08:24:24;;;;;;;5.15;3.65;;;;;;;22.43;66.33;95623.50;5064728;28;20043;-72
2022/09/06 08:26:51;;;;;;;3.78;3.03;;;;;;;21.93;62.72;95603.44;5080643;28;20077;-72
2022/09/06 08:29:20;;;;;;;9.02;3.42;;;;;;;22.08;65.92;95621.00;5080636;28;20563;-72
2022/09/06 08:31:48;;;;;;;4.60;4.03;;;;;;;21.87;67.69;95619.66;5083485;28;20131;-72
2022/09/06 08:34:15;;;;;;;4.28;3.53;;;;;;;22.09;66.87;95629.75;5097081;28;20044;-72
2022/09/06 08:36:43;;;;;;;4.85;3.22;;;;;;;22.22;65.34;95612.34;5080699;28;20039;-72
2022/09/06 08:39:10;;;;;;;8.25;3.47;;;;;;;22.44;65.56;95611.81;5079975;28;20417;-72
2022/09/06 08:42:04;;;;;;;3.72;3.17;;;;;;;22.77;62.52;95614.53;5078738;28;20057;-70
2022/09/06 08:44:41;;;;;;;16.73;3.63;;;;;;;22.97;60.50;95611.53;5080494;28;20047;-72
2022/09/06 08:47:24;;;;;;;4.60;3.22;;;;;;;23.01;62.10;95606.44;5080126;28;20043;-72
2022/09/06 08:50:06;;;;;;;5.93;3.35;;;;;;;23.33;62.68;95595.00;5081477;28;20048;-68
2022/09/06 08:52:57;;;;;;;3.80;2.78;;;;;;;23.63;58.93;95595.53;5098505;28;20047;-69
2022/09/06 08:56:12;;;;;;;3.47;3.05;;;;;;;23.74;58.04;95588.94;5102112;28;20524;-69
2022/09/06 08:59:03;;;;;;;3.83;2.70;;;;;;;24.04;58.39;95592.09;5101848;27;20476;-69
2022/09/06 09:01:44;;;;;;;3.17;2.50;;;;;;;24.31;56.41;95590.44;5105164;27;20057;-70
2022/09/06 09:04:17;;;;;;;3.30;2.75;;;;;;;24.45;54.50;95591.19;5103963;27;20048;-69
2022/09/06 09:06:49;;;;;;;7.60;3.20;;;;;;;24.52;53.76;95591.56;5084752;28;20052;-69
2022/09/06 09:09:16;;;;;;;4.93;2.75;;;;;;;24.51;53.53;95579.38;5103221;27;20317;-70
2022/09/06 09:11:48;;;;;;;4.15;2.95;;;;;;;24.40;53.37;95572.72;5103093;27;20039;-68
2022/09/06 09:14:34;;;;;;;3.30;2.83;;;;;;;24.40;54.23;95567.38;5100783;27;20045;-69
2022/09/06 09:17:15;;;;;;;3.42;2.72;;;;;;;24.64;53.63;95558.34;5102632;28;20460;-68
2022/09/06 09:19:42;;;;;;;3.33;2.80;;;;;;;24.98;52.74;95555.13;5085044;28;20515;-69
2022/09/06 09:22:09;;;;;;;4.30;3.05;;;;;;;24.96;50.52;95551.97;5102445;28;20695;-69
2022/09/06 09:24:36;;;;;;;4.70;2.50;;;;;;;25.12;51.93;95549.69;5102998;28;20480;-70
2022/09/06 09:27:09;;;;;;;3.20;2.40;;;;;;;25.42;48.15;95552.69;5083949;28;20054;-70
2022/09/06 09:29:52;;;;;;;2.60;2.40;;;;;;;25.56;46.98;95553.34;5102358;27;20035;-67
2022/09/06 09:32:41;;;;;;;7.63;2.50;;;;;;;25.70;47.00;95548.69;5102500;27;20054;-69
2022/09/06 09:35:22;;;;;;;3.35;2.13;;;;;;;26.01;45.38;95547.84;5106964;27;20044;-69
2022/09/06 09:38:25;;;;;;;3.05;1.90;;;;;;;26.18;41.86;95556.97;5102591;27;20111;-67
2022/09/06 09:40:59;;;;;;;1.30;1.20;;;;;;;26.19;41.49;95547.88;5076144;27;20138;-67
2022/09/06 09:43:30;;;;;;;5.15;1.85;;;;;;;26.31;41.69;95545.38;5104472;28;20050;-67
2022/09/06 09:46:21;;;;;;;2.88;1.88;;;;;;;26.69;40.67;95536.72;5103985;28;20058;-68
2022/09/06 09:49:12;;;;;;;2.83;1.38;;;;;;;27.00;39.76;95538.38;5104321;28;20436;-67
2022/09/06 09:51:40;;;;;;;3.00;2.00;;;;;;;26.76;38.45;95539.69;5102378;27;20036;-66
2022/09/06 09:54:10;;;;;;;1.60;1.40;;;;;;;25.67;36.81;95538.63;5104519;28;20112;-67
2022/09/06 09:56:42;;;;;;;2.70;1.10;;;;;;;25.75;35.46;95535.22;5103896;28;20048;-67
2022/09/06 09:59:18;;;;;;;4.10;1.08;;;;;;;25.93;36.27;95537.94;5103284;28;20459;-67
2022/09/06 10:01:45;;;;;;;1.75;1.20;;;;;;;25.73;36.65;95531.25;5106086;27;20046;-66
2022/09/06 10:04:37;;;;;;;2.17;1.42;;;;;;;26.12;36.50;95538.41;5107184;27;20478;-67
2022/09/06 10:07:10;;;;;;;2.13;1.67;;;;;;;26.50;39.18;95521.78;5101390;28;20085;-67
2022/09/06 10:09:45;;;;;;;2.90;2.00;;;;;;;26.87;37.26;95521.44;5103443;28;20050;-66
2022/09/06 10:12:17;;;;;;;2.38;1.70;;;;;;;27.26;36.58;95525.75;5101494;28;20050;-67
2022/09/06 10:14:47;;;;;;;2.40;1.27;;;;;;;26.35;36.49;95519.59;5100601;28;20054;-67
2022/09/06 10:17:31;;;;;;;2.53;2.00;;;;;;;26.64;38.10;95518.19;5088045;28;20040;-66
2022/09/06 10:20:07;;;;;;;4.80;1.90;;;;;;;26.62;37.56;95513.16;5085298;28;20436;-67
2022/09/06 10:22:57;;;;;;;2.22;1.73;;;;;;;26.42;37.32;95514.56;5103124;28;20039;-67
2022/09/06 10:26:04;;;;;;;2.95;1.73;;;;;;;26.62;37.00;95512.38;5085238;28;20044;-67
2022/09/06 10:28:40;;;;;;;2.35;1.70;;;;;;;27.09;37.16;95507.06;5100883;27;20513;-67
2022/09/06 10:31:19;;;;;;;2.83;1.88;;;;;;;27.47;36.01;95503.63;5102511;27;20044;-67
2022/09/06 10:33:55;;;;;;;3.38;1.88;;;;;;;27.77;37.24;95496.38;5102637;28;20050;-67
2022/09/06 10:36:30;;;;;;;3.00;1.92;;;;;;;28.05;35.56;95484.41;5102450;27;20078;-81
2022/09/06 10:39:21;;;;;;;2.17;1.80;;;;;;;28.15;36.99;95502.75;5083888;28;20504;-71
2022/09/06 10:41:57;;;;;;;3.08;2.35;;;;;;;28.59;36.85;95503.19;5100098;27;20150;-65
2022/09/06 10:44:53;;;;;;;6.30;1.58;;;;;;;29.03;35.57;95510.78;5122946;27;20047;-69
2022/09/06 10:47:28;;;;;;;4.22;2.20;;;;;;;28.60;34.72;95499.41;5086379;28;20036;-69
2022/09/06 10:49:59;;;;;;;3.58;2.53;;;;;;;28.98;36.00;95493.00;5102962;28;20560;-69
2022/09/06 10:52:33;;;;;;;4.38;2.10;;;;;;;29.44;35.32;95499.13;5084659;28;20813;-68
2022/09/06 10:55:03;;;;;;;4.75;1.90;;;;;;;29.35;34.01;95487.69;5089608;27;20050;-74
2022/09/06 10:57:56;;;;;;;3.45;2.28;;;;;;;29.39;34.47;95491.28;5104345;27;20163;-67
2022/09/06 11:00:46;;;;;;;3.10;2.00;;;;;;;28.82;33.93;95497.47;5100825;27;20584;-68
2022/09/06 11:03:30;;;;;;;1.80;1.70;;;;;;;28.47;35.63;95500.44;5100112;27;20452;-68
2022/09/06 11:06:21;;;;;;;7.00;2.03;;;;;;;28.66;37.02;95491.94;5100445;27;20048;-67
2022/09/06 11:09:26;;;;;;;6.60;2.65;;;;;;;29.39;35.58;95488.59;5103244;27;20046;-68
2022/09/06 11:12:17;;;;;;;2.53;1.90;;;;;;;29.51;35.58;95483.25;5102427;27;20162;-68
2022/09/06 11:14:45;;;;;;;2.22;1.88;;;;;;;29.46;35.39;95486.16;5101268;27;20477;-69
2022/09/06 11:17:32;;;;;;;14.05;2.15;;;;;;;29.09;34.87;95486.09;5102923;27;20126;-69
2022/09/06 11:20:13;;;;;;;6.32;1.73;;;;;;;29.40;34.90;95487.47;5101378;28;20039;-68
2022/09/06 11:22:42;;;;;;;4.82;1.70;;;;;;;30.00;33.56;95492.34;5101465;27;20031;-69
2022/09/06 11:25:34;;;;;;;2.10;1.83;;;;;;;30.67;32.17;95488.09;5105161;27;20055;-69
2022/09/06 11:28:06;;;;;;;2.25;1.60;;;;;;;30.83;30.12;95495.41;5100408;28;20274;-69
2022/09/06 11:30:33;;;;;;;2.65;1.65;;;;;;;30.62;30.77;95491.03;5099669;28;20040;-70
2022/09/06 11:33:23;;;;;;;1.48;1.20;;;;;;;30.10;30.61;95495.34;5066462;28;21373;-70
2022/09/06 11:35:52;;;;;;;4.30;1.45;;;;;;;29.73;32.24;95500.00;5100791;28;20560;-70
2022/09/06 11:38:18;;;;;;;1.83;1.27;;;;;;;29.19;31.01;95492.16;5083302;28;20471;-70
2022/09/06 11:40:50;;;;;;;2.50;1.73;;;;;;;28.58;33.11;95480.97;5100668;28;20036;-71
2022/09/06 11:43:39;;;;;;;2.10;1.50;;;;;;;28.13;33.88;95486.25;5084348;28;20559;-71
2022/09/06 11:46:06;;;;;;;2.10;1.38;;;;;;;27.54;34.83;95471.81;5077210;28;20047;-69
2022/09/06 11:48:48;;;;;;;2.75;1.50;;;;;;;26.93;36.01;95473.94;5101901;27;20079;-71
2022/09/06 11:51:40;;;;;;;3.47;1.58;;;;;;;26.50;37.31;95479.03;5108571;27;20535;-70
2022/09/06 11:54:10;;;;;;;3.80;1.30;;;;;;;26.10;38.89;95473.91;5107228;28;20050;-72